HXE weather

Mexipuerto Ecatepec Heliport
Ecatepec, México (state), Mexico

Public forecast

Using degrees Celsius for public forecast. Weather courtesy of forecast.io.

Closest aviation weather report (METAR) to Mexipuerto Ecatepec Heliport

Closest report is Licenciado Benito Juarez International Airport, 6.4 nm (11.9 km) SSW. Retrieved 2020/04/08 04:41 UTC (38 minutes ago):

MMMX 080441Z 01003KT 10SM SKC 21/06 A3037 NOSIG

Closest aviation forecast (TAF) to Mexipuerto Ecatepec Heliport

Closest forecast is Licenciado Benito Juarez International Airport, 6.4 nm (11.9 km) SSW. Retrieved 2020-04-08 00:06 UTC (5 hours ago):

TAF MMMX 072258Z 0800/0906 20012KT 6SM VC RA SCT020CB BKN080 TX27/0821Z TN15/0812Z TEMPO 0800/0802 5SM TSRA FM080300 04005KT P6SM SCT030 TEMPO 0811/0815 BKN025 FM082100 14010KT P6SM BKN030 PROB40 0822/0902 5SM TSRA BKN025CB FM090400 00000KT P6SM SCT025